Time;durP1;ratioP1;P1;durP2;ratioP2;P2;SDS_P1;SDS_P2;PMS_P1;PMS_P2;Temp;Humidity;BMP_temperature;BMP_pressure;BME280_temperature;BME280_humidity;BME280_pressure;Samples;Min_cycle;Max_cycle;Signal;HPM_P1;HPM_P2
2022/05/08 00:01:11;;;;;;;15.82;6.50;;;;;;;;;;5015713;28;94017;-71
2022/05/08 00:03:38;;;;;;;18.42;6.78;;;;;;;;;;5012518;28;92517;-71
2022/05/08 00:06:10;;;;;;;20.48;6.85;;;;;;;;;;4995338;28;93483;-70
2022/05/08 00:08:37;;;;;;;12.20;6.35;;;;;;;;;;5011265;28;94929;-71
2022/05/08 00:11:04;;;;;;;14.90;6.68;;;;;;;;;;4995414;28;96509;-70
2022/05/08 00:13:31;;;;;;;14.88;7.18;;;;;;;;;;5014666;28;93595;-71
2022/05/08 00:15:59;;;;;;;17.08;7.25;;;;;;;;;;5010861;28;92872;-71
2022/05/08 00:18:25;;;;;;;18.95;6.80;;;;;;;;;;4996341;28;92924;-70
2022/05/08 00:20:51;;;;;;;19.65;6.93;;;;;;;;;;5013197;28;94403;-71
2022/05/08 00:23:17;;;;;;;14.07;6.18;;;;;;;;;;5008253;28;92360;-71
2022/05/08 00:25:44;;;;;;;20.20;7.03;;;;;;;;;;5012549;28;92788;-71
2022/05/08 00:28:10;;;;;;;20.67;7.95;;;;;;;;;;5013265;28;92840;-70
2022/05/08 00:30:36;;;;;;;22.70;7.55;;;;;;;;;;5010037;28;93181;-71
2022/05/08 00:33:02;;;;;;;13.95;6.97;;;;;;;;;;5011077;28;95896;-71
2022/05/08 00:35:29;;;;;;;19.52;6.97;;;;;;;;;;5013403;28;92525;-70
2022/05/08 00:37:55;;;;;;;22.40;7.10;;;;;;;;;;5012875;28;93010;-71
2022/05/08 00:40:21;;;;;;;19.52;7.35;;;;;;;;;;5013616;28;93939;-70
2022/05/08 00:42:52;;;;;;;;;;;;;;;;;;5013137;28;92541;-70
2022/05/08 00:45:18;;;;;;;19.23;6.80;;;;;;;;;;5015918;28;123647;-71
2022/05/08 00:47:46;;;;;;;19.35;6.18;;;;;;;;;;5014148;28;92883;-71
2022/05/08 00:50:12;;;;;;;19.48;6.38;;;;;;;;;;5014043;28;93247;-71
2022/05/08 00:52:39;;;;;;;16.52;5.97;;;;;;;;;;5012276;28;93860;-70
2022/05/08 00:55:06;;;;;;;20.65;7.00;;;;;;;;;;5013048;28;93704;-70
2022/05/08 00:57:33;;;;;;;19.20;7.28;;;;;;;;;;5011879;28;95335;-70
2022/05/08 01:00:04;;;;;;;20.17;7.25;;;;;;;;;;5012595;28;94597;-70
2022/05/08 01:02:31;;;;;;;18.95;6.68;;;;;;;;;;5013018;28;93830;-70
2022/05/08 01:04:57;;;;;;;18.05;6.50;;;;;;;;;;5016545;28;95620;-71
2022/05/08 01:07:26;;;;;;;17.77;6.43;;;;;;;;;;5018781;28;93004;-71
2022/05/08 01:09:53;;;;;;;20.17;6.65;;;;;;;;;;5016548;28;93477;-71
2022/05/08 01:12:21;;;;;;;19.75;6.35;;;;;;;;;;5017878;28;92984;-71
2022/05/08 01:15:07;;;;;;;24.77;7.32;;;;;;;;;;5016689;28;91802;-70
2022/05/08 01:17:33;;;;;;;21.85;6.97;;;;;;;;;;5011698;28;92437;-70
2022/05/08 01:19:59;;;;;;;21.98;6.80;;;;;;;;;;5015941;28;93689;-70
2022/05/08 01:22:26;;;;;;;23.33;7.15;;;;;;;;;;5014336;28;94940;-70
2022/05/08 01:24:53;;;;;;;26.60;7.50;;;;;;;;;;5016249;28;95650;-70
2022/05/08 01:27:19;;;;;;;22.05;7.43;;;;;;;;;;5015167;28;93198;-71
2022/05/08 01:29:45;;;;;;;21.20;6.95;;;;;;;;;;5018565;28;93846;-70
2022/05/08 01:32:12;;;;;;;26.50;7.25;;;;;;;;;;5014822;28;93248;-71
2022/05/08 01:34:38;;;;;;;26.45;6.70;;;;;;;;;;5009520;28;92473;-71
2022/05/08 01:37:04;;;;;;;26.70;7.70;;;;;;;;;;5015145;28;94243;-71
2022/05/08 01:39:30;;;;;;;29.17;6.95;;;;;;;;;;5014987;28;92738;-71
2022/05/08 01:41:57;;;;;;;38.25;8.93;;;;;;;;;;5014928;28;92772;-71
2022/05/08 01:44:24;;;;;;;32.25;7.70;;;;;;;;;;4998786;28;93174;-71
2022/05/08 01:48:21;;;;;;;31.67;7.90;;;;;;;;;;5013997;28;96182;-70
2022/05/08 01:49:37;;;;;;;31.23;7.68;;;;;;;;;;5015143;28;92793;-70
2022/05/08 01:52:04;;;;;;;27.70;6.13;;;;;;;;;;5018620;28;93141;-71
2022/05/08 01:54:30;;;;;;;31.45;6.45;;;;;;;;;;5014806;28;92459;-70
2022/05/08 01:56:56;;;;;;;35.05;6.70;;;;;;;;;;5016157;28;93116;-70
2022/05/08 01:59:23;;;;;;;43.67;7.78;;;;;;;;;;5015216;28;93507;-70
2022/05/08 02:01:49;;;;;;;41.72;6.25;;;;;;;;;;5015146;28;93797;-71
2022/05/08 02:04:16;;;;;;;32.35;6.60;;;;;;;;;;5014095;28;93253;-70
2022/05/08 02:06:42;;;;;;;25.02;5.40;;;;;;;;;;5015297;28;93102;-70
2022/05/08 02:09:09;;;;;;;23.15;5.53;;;;;;;;;;5015647;28;92638;-71
2022/05/08 02:11:35;;;;;;;37.22;6.88;;;;;;;;;;5016495;28;94893;-70
2022/05/08 02:14:02;;;;;;;26.63;5.40;;;;;;;;;;5015810;28;92383;-70
2022/05/08 02:16:29;;;;;;;42.28;6.05;;;;;;;;;;5014093;28;92936;-71
2022/05/08 02:18:55;;;;;;;35.47;5.60;;;;;;;;;;5015760;28;93787;-71
2022/05/08 02:21:21;;;;;;;24.80;4.50;;;;;;;;;;5014296;28;93237;-70
2022/05/08 02:23:48;;;;;;;34.10;6.32;;;;;;;;;;5013709;28;93442;-70
2022/05/08 02:26:14;;;;;;;22.77;5.22;;;;;;;;;;5014329;28;93465;-71
2022/05/08 02:28:40;;;;;;;24.17;4.95;;;;;;;;;;5016038;28;91720;-70
2022/05/08 02:31:07;;;;;;;38.03;6.38;;;;;;;;;;5015352;28;93100;-71
2022/05/08 02:33:33;;;;;;;36.90;5.45;;;;;;;;;;5017464;28;94009;-71
2022/05/08 02:35:59;;;;;;;29.50;5.07;;;;;;;;;;5013386;28;96494;-70
2022/05/08 02:38:25;;;;;;;32.50;5.88;;;;;;;;;;5015924;28;94946;-70
2022/05/08 02:40:52;;;;;;;35.15;5.35;;;;;;;;;;5014883;28;92493;-70
2022/05/08 02:43:20;;;;;;;31.20;5.45;;;;;;;;;;5015286;28;93040;-70
2022/05/08 02:45:47;;;;;;;36.05;4.95;;;;;;;;;;5014617;28;93489;-70
2022/05/08 02:48:13;;;;;;;42.38;5.90;;;;;;;;;;5014805;28;92770;-70
2022/05/08 02:50:40;;;;;;;32.67;6.05;;;;;;;;;;5012984;28;92963;-71
2022/05/08 02:53:06;;;;;;;35.33;4.85;;;;;;;;;;5001203;28;93278;-70
2022/05/08 02:58:32;;;;;;;27.83;4.93;;;;;;;;;;5009469;28;93642;-71
2022/05/08 03:01:02;;;;;;;27.77;4.63;;;;;;;;;;5013266;28;95044;-70
2022/05/08 03:03:28;;;;;;;26.93;4.70;;;;;;;;;;5014556;28;96605;-70
2022/05/08 03:05:54;;;;;;;24.65;4.07;;;;;;;;;;4988246;28;94268;-71
2022/05/08 03:08:20;;;;;;;24.15;4.15;;;;;;;;;;4974731;28;92470;-71
2022/05/08 03:13:35;;;;;;;41.28;5.50;;;;;;;;;;4975621;28;93401;-71
2022/05/08 03:16:02;;;;;;;28.00;4.82;;;;;;;;;;4973191;28;92461;-71
2022/05/08 03:18:28;;;;;;;27.85;4.63;;;;;;;;;;4977920;28;94326;-70
2022/05/08 03:20:54;;;;;;;23.05;4.35;;;;;;;;;;4975096;28;92941;-70
2022/05/08 03:23:21;;;;;;;31.40;4.93;;;;;;;;;;4972579;28;94227;-71
2022/05/08 03:25:47;;;;;;;30.73;5.80;;;;;;;;;;4972682;28;95604;-70
2022/05/08 03:28:15;;;;;;;31.73;4.93;;;;;;;;;;4973900;28;92586;-70
2022/05/08 03:30:42;;;;;;;35.83;5.30;;;;;;;;;;4968738;28;93309;-70
2022/05/08 03:33:09;;;;;;;32.10;5.40;;;;;;;;;;4974976;28;94585;-71
2022/05/08 03:35:39;;;;;;;26.13;5.07;;;;;;;;;;4975511;28;92472;-70
2022/05/08 03:38:06;;;;;;;23.00;4.88;;;;;;;;;;4975293;28;92812;-71
2022/05/08 03:40:33;;;;;;;23.38;4.68;;;;;;;;;;4976381;28;94067;-70
2022/05/08 03:43:00;;;;;;;21.05;4.15;;;;;;;;;;4989139;28;93269;-71
2022/05/08 03:45:26;;;;;;;28.80;4.28;;;;;;;;;;4973233;28;93453;-70
2022/05/08 03:47:53;;;;;;;26.90;5.15;;;;;;;;;;4974937;28;92557;-70
2022/05/08 03:50:19;;;;;;;20.33;4.65;;;;;;;;;;4986350;28;95604;-70
2022/05/08 03:52:46;;;;;;;23.50;4.53;;;;;;;;;;4973161;28;96210;-70
2022/05/08 03:55:15;;;;;;;34.75;5.30;;;;;;;;;;4973036;28;92622;-71
2022/05/08 03:57:41;;;;;;;32.17;4.65;;;;;;;;;;4974052;28;93046;-70
2022/05/08 04:00:09;;;;;;;25.58;5.18;;;;;;;;;;4972189;28;94447;-70
2022/05/08 04:02:35;;;;;;;23.00;4.15;;;;;;;;;;4977001;28;92516;-70
2022/05/08 04:05:02;;;;;;;38.30;5.15;;;;;;;;;;4986906;28;92508;-70
2022/05/08 04:07:29;;;;;;;33.63;4.70;;;;;;;;;;4962194;28;93320;-70
2022/05/08 04:09:56;;;;;;;27.90;5.15;;;;;;;;;;4974666;28;94627;-70
2022/05/08 04:12:22;;;;;;;34.83;4.82;;;;;;;;;;4974187;28;93360;-70
2022/05/08 04:14:49;;;;;;;27.42;5.28;;;;;;;;;;4985163;28;95321;-71
2022/05/08 04:17:16;;;;;;;29.17;4.72;;;;;;;;;;4972798;28;95638;-71
2022/05/08 04:19:42;;;;;;;28.83;5.25;;;;;;;;;;4973526;28;94390;-70
2022/05/08 04:24:53;;;;;;;25.05;5.20;;;;;;;;;;4973101;28;93511;-71
2022/05/08 04:27:20;;;;;;;31.27;5.32;;;;;;;;;;4972614;28;92543;-70
2022/05/08 04:29:46;;;;;;;25.25;5.35;;;;;;;;;;4973680;28;92954;-70
2022/05/08 04:32:12;;;;;;;31.70;4.43;;;;;;;;;;4988646;28;92312;-70
2022/05/08 04:34:38;;;;;;;25.50;6.15;;;;;;;;;;4971098;28;92570;-70
2022/05/08 04:37:05;;;;;;;32.03;5.15;;;;;;;;;;4972769;28;93037;-70
2022/05/08 04:39:31;;;;;;;28.63;4.15;;;;;;;;;;4972232;28;96843;-71
2022/05/08 04:41:59;;;;;;;31.38;5.88;;;;;;;;;;4988520;28;92419;-70
2022/05/08 04:44:25;;;;;;;37.67;5.00;;;;;;;;;;4974800;28;93148;-70
2022/05/08 04:46:51;;;;;;;32.63;5.25;;;;;;;;;;4988110;28;92669;-71
2022/05/08 04:49:18;;;;;;;31.70;5.32;;;;;;;;;;4972216;28;93183;-71
2022/05/08 04:51:44;;;;;;;36.00;5.13;;;;;;;;;;4972252;28;93251;-71
2022/05/08 04:54:10;;;;;;;28.15;5.25;;;;;;;;;;4974111;28;92857;-70
2022/05/08 04:56:37;;;;;;;28.13;4.90;;;;;;;;;;4974120;28;93136;-70
2022/05/08 04:59:03;;;;;;;32.95;5.97;;;;;;;;;;4972819;28;93745;-71
2022/05/08 05:01:29;;;;;;;29.45;5.32;;;;;;;;;;4973255;28;92431;-70
2022/05/08 05:03:56;;;;;;;27.27;4.53;;;;;;;;;;4975678;28;94922;-70
2022/05/08 05:06:25;;;;;;;25.05;5.05;;;;;;;;;;5014999;28;94208;-70
2022/05/08 05:08:51;;;;;;;27.55;5.57;;;;;;;;;;5008576;28;93162;-70
2022/05/08 05:11:19;;;;;;;22.13;4.57;;;;;;;;;;5007459;28;93436;-70
2022/05/08 05:13:45;;;;;;;29.88;4.97;;;;;;;;;;5013120;28;92448;-70
2022/05/08 05:16:11;;;;;;;23.00;4.65;;;;;;;;;;5011481;28;93242;-71
2022/05/08 05:18:37;;;;;;;37.85;5.63;;;;;;;;;;5012159;28;93429;-70
2022/05/08 05:21:04;;;;;;;28.25;4.75;;;;;;;;;;5012650;28;93412;-70
2022/05/08 05:23:32;;;;;;;28.92;4.43;;;;;;;;;;5013986;28;93944;-70
2022/05/08 05:25:59;;;;;;;26.92;4.47;;;;;;;;;;5011411;28;93714;-70
2022/05/08 05:28:25;;;;;;;23.08;4.57;;;;;;;;;;4995813;28;95259;-70
2022/05/08 05:30:51;;;;;;;21.85;4.93;;;;;;;;;;5012405;28;93438;-70
2022/05/08 05:33:18;;;;;;;32.63;5.32;;;;;;;;;;5009543;28;92493;-70
2022/05/08 05:35:45;;;;;;;31.50;5.30;;;;;;;;;;5011993;28;93439;-70
2022/05/08 05:38:11;;;;;;;35.88;5.25;;;;;;;;;;5012418;28;93567;-70
2022/05/08 05:40:37;;;;;;;20.70;4.95;;;;;;;;;;5011585;28;92450;-70
2022/05/08 05:43:03;;;;;;;25.27;5.50;;;;;;;;;;5011953;28;93235;-70
2022/05/08 05:45:30;;;;;;;22.55;4.38;;;;;;;;;;5012288;28;92797;-70
2022/05/08 05:47:59;;;;;;;22.77;4.63;;;;;;;;;;5015896;28;92451;-70
2022/05/08 05:50:26;;;;;;;26.50;4.60;;;;;;;;;;5018065;28;93267;-70
2022/05/08 05:52:52;;;;;;;29.35;4.82;;;;;;;;;;4997185;28;94825;-71
2022/05/08 05:55:19;;;;;;;34.03;5.88;;;;;;;;;;4997611;28;95660;-71
2022/05/08 05:57:45;;;;;;;31.92;5.32;;;;;;;;;;5015211;28;93508;-70
2022/05/08 06:00:13;;;;;;;35.17;5.45;;;;;;;;;;5014284;28;93790;-71
2022/05/08 06:02:40;;;;;;;19.55;4.35;;;;;;;;;;5007295;28;93112;-70
2022/05/08 06:05:07;;;;;;;24.33;4.90;;;;;;;;;;5011789;28;93799;-70
2022/05/08 06:07:33;;;;;;;26.10;4.32;;;;;;;;;;5016689;28;92524;-70
2022/05/08 06:10:00;;;;;;;28.17;5.47;;;;;;;;;;5018188;28;92958;-70
2022/05/08 06:12:28;;;;;;;26.55;5.93;;;;;;;;;;5016344;28;92452;-70
2022/05/08 06:14:54;;;;;;;29.50;4.60;;;;;;;;;;5015254;28;93248;-71
2022/05/08 06:17:20;;;;;;;28.58;4.60;;;;;;;;;;5013791;28;96240;-70
2022/05/08 06:19:47;;;;;;;29.92;5.07;;;;;;;;;;5014764;28;92509;-70
2022/05/08 06:22:14;;;;;;;22.20;4.15;;;;;;;;;;5015607;28;93229;-70
2022/05/08 06:24:40;;;;;;;18.88;4.68;;;;;;;;;;5014396;28;93667;-70
2022/05/08 06:27:06;;;;;;;24.63;3.88;;;;;;;;;;5016257;28;92359;-70
2022/05/08 06:29:33;;;;;;;26.80;4.90;;;;;;;;;;5014792;28;92911;-70
2022/05/08 06:31:59;;;;;;;27.08;5.47;;;;;;;;;;5017808;28;93297;-71
2022/05/08 06:34:29;;;;;;;23.48;3.88;;;;;;;;;;5016344;28;94719;-70
2022/05/08 06:36:55;;;;;;;26.55;4.10;;;;;;;;;;5015325;28;93533;-70
2022/05/08 06:39:21;;;;;;;28.05;4.03;;;;;;;;;;5015534;28;92483;-70
2022/05/08 06:41:48;;;;;;;32.60;5.32;;;;;;;;;;5013977;28;94956;-70
2022/05/08 06:44:14;;;;;;;25.58;4.65;;;;;;;;;;5014011;28;93478;-70
2022/05/08 06:46:40;;;;;;;16.70;3.72;;;;;;;;;;5014496;28;93345;-70
2022/05/08 06:49:07;;;;;;;26.50;3.85;;;;;;;;;;5015441;28;92593;-70
2022/05/08 06:51:34;;;;;;;26.75;4.60;;;;;;;;;;5013761;28;93436;-70
2022/05/08 06:54:00;;;;;;;25.77;3.78;;;;;;;;;;5016456;28;92872;-70
2022/05/08 06:56:30;;;;;;;24.75;3.63;;;;;;;;;;5013596;28;93316;-70
2022/05/08 07:01:43;;;;;;;22.52;4.03;;;;;;;;;;5013080;28;92664;-70
2022/05/08 07:04:10;;;;;;;27.75;4.90;;;;;;;;;;5011702;28;93762;-71
2022/05/08 07:06:37;;;;;;;28.98;3.80;;;;;;;;;;5013217;28;95794;-70
2022/05/08 07:09:10;;;;;;;12.20;3.42;;;;;;;;;;5013138;28;95575;-70
2022/05/08 07:11:37;;;;;;;27.02;5.13;;;;;;;;;;5013591;28;93514;-70
2022/05/08 07:14:03;;;;;;;14.45;3.25;;;;;;;;;;5013237;28;92462;-70
2022/05/08 07:16:29;;;;;;;19.25;3.13;;;;;;;;;;5015095;28;93268;-70
2022/05/08 07:18:56;;;;;;;14.73;3.05;;;;;;;;;;5014177;28;92510;-71
2022/05/08 07:21:22;;;;;;;22.52;3.95;;;;;;;;;;5014146;28;93211;-70
2022/05/08 07:23:48;;;;;;;19.55;3.55;;;;;;;;;;5014907;28;92534;-70
2022/05/08 07:26:15;;;;;;;25.88;3.60;;;;;;;;;;5012607;28;92848;-70
2022/05/08 07:28:41;;;;;;;20.02;3.97;;;;;;;;;;5013983;28;93247;-70
2022/05/08 07:31:08;;;;;;;19.25;3.33;;;;;;;;;;5009902;28;96015;-70
2022/05/08 07:33:38;;;;;;;23.10;3.72;;;;;;;;;;5013000;28;93456;-70
2022/05/08 07:36:14;;;;;;;25.48;3.58;;;;;;;;;;4995640;28;92870;-71
2022/05/08 07:38:44;;;;;;;15.82;2.90;;;;;;;;;;5017452;28;93380;-71
2022/05/08 07:41:17;;;;;;;28.02;3.90;;;;;;;;;;5013656;28;93229;-71
2022/05/08 07:43:46;;;;;;;24.75;3.55;;;;;;;;;;5015090;28;92497;-71
2022/05/08 07:46:13;;;;;;;27.95;3.95;;;;;;;;;;5012268;28;92501;-71
2022/05/08 07:48:40;;;;;;;19.10;3.63;;;;;;;;;;5013780;28;93153;-72
2022/05/08 07:51:06;;;;;;;20.05;3.35;;;;;;;;;;4995749;28;93276;-71
2022/05/08 07:53:33;;;;;;;21.10;3.30;;;;;;;;;;5012507;28;92473;-71
2022/05/08 07:55:59;;;;;;;25.33;4.10;;;;;;;;;;5010544;28;94872;-70
2022/05/08 07:58:32;;;;;;;14.13;3.40;;;;;;;;;;5012543;28;93604;-70
2022/05/08 08:01:02;;;;;;;24.20;3.72;;;;;;;;;;5015927;28;92487;-71
2022/05/08 08:03:29;;;;;;;16.45;2.85;;;;;;;;;;5011613;28;93402;-71
2022/05/08 08:05:56;;;;;;;19.63;3.63;;;;;;;;;;5009421;28;93418;-69
2022/05/08 08:08:38;;;;;;;24.92;4.43;;;;;;;;;;5005076;28;94031;-70
2022/05/08 08:11:05;;;;;;;23.35;3.42;;;;;;;;;;5014350;28;93099;-70
2022/05/08 08:13:32;;;;;;;14.45;2.67;;;;;;;;;;5014945;28;91886;-69
2022/05/08 08:16:00;;;;;;;20.55;3.72;;;;;;;;;;5009909;28;92607;-70
2022/05/08 08:18:26;;;;;;;16.63;3.33;;;;;;;;;;5012858;28;94652;-70
2022/05/08 08:20:53;;;;;;;15.40;3.47;;;;;;;;;;5007085;28;95010;-68
2022/05/08 08:23:19;;;;;;;30.02;3.88;;;;;;;;;;5012759;28;94447;-69
2022/05/08 08:25:45;;;;;;;17.88;3.33;;;;;;;;;;5003770;28;92510;-69
2022/05/08 08:28:12;;;;;;;22.27;3.47;;;;;;;;;;5013601;28;93357;-69
2022/05/08 08:30:38;;;;;;;18.40;2.90;;;;;;;;;;5012274;28;94423;-68
2022/05/08 08:33:04;;;;;;;16.83;3.88;;;;;;;;;;5013164;28;92659;-68
2022/05/08 08:35:30;;;;;;;23.92;3.80;;;;;;;;;;5013275;28;93565;-68
2022/05/08 08:37:57;;;;;;;19.58;2.95;;;;;;;;;;5013221;28;93715;-69
2022/05/08 08:40:23;;;;;;;17.15;3.92;;;;;;;;;;5001394;28;92498;-69
2022/05/08 08:42:51;;;;;;;16.98;3.50;;;;;;;;;;5014763;28;93082;-70
2022/05/08 08:48:02;;;;;;;12.98;2.90;;;;;;;;;;5011517;28;95623;-70
2022/05/08 08:50:28;;;;;;;21.65;3.97;;;;;;;;;;5011634;28;94647;-69
2022/05/08 08:52:58;;;;;;;18.00;3.35;;;;;;;;;;5011374;28;92507;-70
2022/05/08 08:55:25;;;;;;;15.38;2.90;;;;;;;;;;5011283;28;93625;-72
2022/05/08 08:57:51;;;;;;;23.73;3.35;;;;;;;;;;5013823;28;92476;-68
2022/05/08 09:00:18;;;;;;;21.63;3.90;;;;;;;;;;5010511;28;92660;-70
2022/05/08 09:02:47;;;;;;;20.75;3.78;;;;;;;;;;5011443;28;93107;-70
2022/05/08 09:05:14;;;;;;;25.13;3.65;;;;;;;;;;5012535;28;93519;-70
2022/05/08 09:07:42;;;;;;;15.65;3.25;;;;;;;;;;5013181;28;93188;-69
2022/05/08 09:10:08;;;;;;;14.70;3.03;;;;;;;;;;5008310;28;95852;-70
2022/05/08 09:12:35;;;;;;;16.17;3.28;;;;;;;;;;5011447;28;92622;-70
2022/05/08 09:15:17;;;;;;;18.48;4.03;;;;;;;;;;5010226;28;93007;-70
2022/05/08 09:17:44;;;;;;;15.88;3.20;;;;;;;;;;5012089;28;95073;-70
2022/05/08 09:20:32;;;;;;;13.93;2.30;;;;;;;;;;5012842;28;92463;-70
2022/05/08 09:22:58;;;;;;;15.45;3.38;;;;;;;;;;5016747;28;93381;-70
2022/05/08 09:25:24;;;;;;;23.13;3.60;;;;;;;;;;5016564;28;94427;-70
2022/05/08 09:27:59;;;;;;;14.57;3.15;;;;;;;;;;5014965;28;91726;-71
2022/05/08 09:30:26;;;;;;;20.15;3.13;;;;;;;;;;4997476;28;93187;-72
2022/05/08 09:32:52;;;;;;;23.67;3.22;;;;;;;;;;5014454;28;93232;-73
2022/05/08 09:35:18;;;;;;;18.67;2.78;;;;;;;;;;4995862;28;95108;-72
2022/05/08 09:37:52;;;;;;;14.05;3.25;;;;;;;;;;5016248;28;93525;-72
2022/05/08 09:40:19;;;;;;;13.73;2.47;;;;;;;;;;5016133;28;92464;-72
2022/05/08 09:42:46;;;;;;;12.65;2.88;;;;;;;;;;5006809;28;93117;-72
2022/05/08 09:45:13;;;;;;;22.48;2.97;;;;;;;;;;5014872;28;94248;-72
2022/05/08 09:47:42;;;;;;;11.02;2.40;;;;;;;;;;5016285;28;92420;-72
2022/05/08 09:50:09;;;;;;;9.52;2.75;;;;;;;;;;5016002;28;93837;-73
2022/05/08 09:52:39;;;;;;;10.98;3.05;;;;;;;;;;5016592;28;91759;-72
2022/05/08 09:55:09;;;;;;;14.85;3.47;;;;;;;;;;5014269;28;92553;-72
2022/05/08 09:57:36;;;;;;;22.13;3.10;;;;;;;;;;5015827;28;93803;-72
2022/05/08 10:00:03;;;;;;;19.80;2.90;;;;;;;;;;5012020;28;94956;-72
2022/05/08 10:02:30;;;;;;;14.98;2.80;;;;;;;;;;5014240;28;94414;-72
2022/05/08 10:04:57;;;;;;;16.92;2.92;;;;;;;;;;5010439;28;93280;-72
2022/05/08 10:07:24;;;;;;;6.63;2.10;;;;;;;;;;5012697;28;92535;-72
2022/05/08 10:15:29;;;;;;;15.95;3.65;;;;;;;;;;5014428;28;93036;-72
2022/05/08 10:18:14;;;;;;;15.05;2.90;;;;;;;;;;5016061;28;95180;-72
2022/05/08 10:20:58;;;;;;;12.95;2.47;;;;;;;;;;5013289;28;92581;-71
2022/05/08 10:23:38;;;;;;;9.27;2.33;;;;;;;;;;5011889;28;93280;-72
2022/05/08 10:26:16;;;;;;;14.75;2.60;;;;;;;;;;5012727;28;96923;-71
2022/05/08 10:29:01;;;;;;;11.70;2.50;;;;;;;;;;4997449;28;92470;-72
2022/05/08 10:31:44;;;;;;;11.27;2.72;;;;;;;;;;5013212;28;94087;-72
2022/05/08 10:34:11;;;;;;;13.52;2.83;;;;;;;;;;5017240;28;93408;-72
2022/05/08 10:36:40;;;;;;;8.27;2.40;;;;;;;;;;5015709;28;93187;-73
2022/05/08 10:39:25;;;;;;;14.13;2.80;;;;;;;;;;5014336;28;93473;-73
2022/05/08 10:41:53;;;;;;;15.40;2.67;;;;;;;;;;5013033;28;92750;-73
2022/05/08 10:44:35;;;;;;;10.50;2.60;;;;;;;;;;5015095;28;93026;-73
2022/05/08 10:47:28;;;;;;;5.75;1.98;;;;;;;;;;5015771;28;93224;-74
2022/05/08 10:49:55;;;;;;;11.48;2.15;;;;;;;;;;4973914;28;93967;-75
2022/05/08 10:52:21;;;;;;;10.75;2.03;;;;;;;;;;5013564;28;94819;-75
2022/05/08 10:54:56;;;;;;;10.13;2.22;;;;;;;;;;5012511;28;92837;-75
2022/05/08 10:57:30;;;;;;;13.95;2.65;;;;;;;;;;5013518;28;92696;-75
2022/05/08 10:59:56;;;;;;;8.05;1.92;;;;;;;;;;5002767;28;93490;-74
2022/05/08 11:02:39;;;;;;;14.25;2.45;;;;;;;;;;5013573;28;92655;-74
2022/05/08 11:05:09;;;;;;;14.77;2.00;;;;;;;;;;5013477;28;94539;-74
2022/05/08 11:07:36;;;;;;;;;;;;;;;;;;4997920;28;93421;-72
2022/05/08 11:10:02;;;;;;;10.25;2.10;;;;;;;;;;5014380;28;117992;-75
2022/05/08 11:12:29;;;;;;;11.75;2.03;;;;;;;;;;5015193;28;92726;-71
2022/05/08 11:15:06;;;;;;;7.03;1.83;;;;;;;;;;5012183;28;93523;-74
2022/05/08 11:17:32;;;;;;;9.05;2.45;;;;;;;;;;5005134;28;95388;-75
2022/05/08 11:19:58;;;;;;;10.60;2.63;;;;;;;;;;5017248;28;95476;-77
2022/05/08 11:22:25;;;;;;;16.88;2.28;;;;;;;;;;5014640;28;92529;-76
2022/05/08 11:24:51;;;;;;;8.98;2.30;;;;;;;;;;5012199;28;93416;-71
2022/05/08 11:27:17;;;;;;;8.20;1.88;;;;;;;;;;5012763;28;93429;-73
2022/05/08 11:29:47;;;;;;;10.35;2.25;;;;;;;;;;5012409;28;92753;-76
2022/05/08 11:38:02;;;;;;;14.95;2.28;;;;;;;;;;5009484;28;92421;-72
2022/05/08 11:40:29;;;;;;;8.35;2.05;;;;;;;;;;4995544;28;93314;-74
2022/05/08 11:42:56;;;;;;;10.43;2.45;;;;;;;;;;4997801;28;96931;-74
2022/05/08 11:45:22;;;;;;;12.98;1.83;;;;;;;;;;5012020;28;96164;-74
2022/05/08 11:47:49;;;;;;;13.43;2.30;;;;;;;;;;5009890;28;93510;-74
2022/05/08 11:50:15;;;;;;;6.13;1.80;;;;;;;;;;5010405;28;93245;-72
2022/05/08 11:52:41;;;;;;;12.80;2.13;;;;;;;;;;5014271;28;92384;-74
2022/05/08 11:55:08;;;;;;;8.23;1.80;;;;;;;;;;5013212;28;93405;-72
2022/05/08 11:57:41;;;;;;;7.70;2.28;;;;;;;;;;5012773;28;92465;-72
2022/05/08 12:00:11;;;;;;;9.93;2.63;;;;;;;;;;4985595;28;93339;-73
2022/05/08 12:02:38;;;;;;;10.80;2.30;;;;;;;;;;5013259;28;93657;-74
2022/05/08 12:05:05;;;;;;;8.60;2.03;;;;;;;;;;5016148;28;93238;-73
2022/05/08 12:07:38;;;;;;;9.63;2.00;;;;;;;;;;5010575;28;96142;-72
2022/05/08 12:10:05;;;;;;;10.88;2.03;;;;;;;;;;5009684;28;92621;-73
2022/05/08 12:12:35;;;;;;;7.70;2.08;;;;;;;;;;5010706;28;94249;-77
2022/05/08 12:15:06;;;;;;;9.88;1.80;;;;;;;;;;5012423;28;94491;-74
2022/05/08 12:17:39;;;;;;;10.23;2.25;;;;;;;;;;5000140;28;92485;-74
2022/05/08 12:20:15;;;;;;;12.80;2.35;;;;;;;;;;5010468;28;93169;-73
2022/05/08 12:22:42;;;;;;;9.40;1.98;;;;;;;;;;5014839;28;93227;-73
2022/05/08 12:25:08;;;;;;;13.48;2.00;;;;;;;;;;5012416;28;91815;-73
2022/05/08 12:27:34;;;;;;;8.98;1.90;;;;;;;;;;5011374;28;92511;-73
2022/05/08 12:30:02;;;;;;;6.40;2.15;;;;;;;;;;5010225;28;92669;-73
2022/05/08 12:32:37;;;;;;;4.78;1.75;;;;;;;;;;5009599;28;96302;-73
2022/05/08 12:35:04;;;;;;;11.30;1.92;;;;;;;;;;5010453;28;93227;-73
2022/05/08 12:37:31;;;;;;;12.77;2.53;;;;;;;;;;5012743;28;92654;-73
2022/05/08 12:39:57;;;;;;;9.35;1.83;;;;;;;;;;5007802;28;93770;-75
2022/05/08 12:42:23;;;;;;;9.02;2.03;;;;;;;;;;5011565;28;93659;-74
2022/05/08 12:44:50;;;;;;;5.72;1.65;;;;;;;;;;5010024;28;92897;-74
2022/05/08 12:47:18;;;;;;;9.80;1.80;;;;;;;;;;5014456;28;93455;-73
2022/05/08 12:49:45;;;;;;;10.50;2.28;;;;;;;;;;5012197;28;91783;-75
2022/05/08 12:52:11;;;;;;;14.95;2.47;;;;;;;;;;5012659;28;92443;-76
2022/05/08 12:54:38;;;;;;;10.20;2.70;;;;;;;;;;5009134;28;93500;-73
2022/05/08 12:57:08;;;;;;;6.53;1.83;;;;;;;;;;5010273;28;94886;-73
2022/05/08 12:59:46;;;;;;;14.55;2.40;;;;;;;;;;4991384;28;95314;-74
2022/05/08 13:02:13;;;;;;;8.68;2.30;;;;;;;;;;5016153;28;93543;-74
2022/05/08 13:04:40;;;;;;;10.88;2.30;;;;;;;;;;5012004;28;92585;-73
2022/05/08 13:07:07;;;;;;;11.98;2.20;;;;;;;;;;5017334;28;92989;-72
2022/05/08 13:09:33;;;;;;;6.45;1.77;;;;;;;;;;5017381;28;93258;-73
2022/05/08 13:12:00;;;;;;;7.03;2.20;;;;;;;;;;5015135;28;93034;-73
2022/05/08 13:14:29;;;;;;;9.85;2.10;;;;;;;;;;5012393;28;92753;-73
2022/05/08 13:16:56;;;;;;;5.13;1.98;;;;;;;;;;4998498;28;92838;-73
2022/05/08 13:19:23;;;;;;;11.27;2.03;;;;;;;;;;5014356;28;93027;-73
2022/05/08 13:21:50;;;;;;;8.98;2.45;;;;;;;;;;5006332;28;95868;-73
2022/05/08 13:24:16;;;;;;;7.57;2.15;;;;;;;;;;4987913;28;93603;-74
2022/05/08 13:26:42;;;;;;;6.40;1.80;;;;;;;;;;5014473;28;93975;-73
2022/05/08 13:29:09;;;;;;;14.20;2.70;;;;;;;;;;5016350;28;95001;-73
2022/05/08 13:31:38;;;;;;;17.20;1.55;;;;;;;;;;5016996;28;92682;-73
2022/05/08 13:34:04;;;;;;;8.65;2.08;;;;;;;;;;5014933;28;93475;-72
2022/05/08 13:36:30;;;;;;;6.72;1.73;;;;;;;;;;5015735;28;93286;-72
2022/05/08 13:38:56;;;;;;;5.35;2.05;;;;;;;;;;5016794;28;93191;-72
2022/05/08 13:41:23;;;;;;;9.00;1.80;;;;;;;;;;5015749;28;93958;-72
2022/05/08 13:43:49;;;;;;;9.07;1.60;;;;;;;;;;5015411;28;92543;-73
2022/05/08 13:46:15;;;;;;;7.70;2.10;;;;;;;;;;5014122;28;94913;-73
2022/05/08 13:48:42;;;;;;;3.75;1.90;;;;;;;;;;4997968;28;93375;-73
2022/05/08 13:51:10;;;;;;;12.07;2.03;;;;;;;;;;5015514;28;92572;-73
2022/05/08 13:53:42;;;;;;;7.15;1.50;;;;;;;;;;5017938;28;93551;-74
2022/05/08 13:56:09;;;;;;;4.38;1.80;;;;;;;;;;5015629;28;92449;-72
2022/05/08 13:58:36;;;;;;;4.47;1.70;;;;;;;;;;5015490;28;93312;-72
2022/05/08 14:01:04;;;;;;;4.18;1.65;;;;;;;;;;5015061;28;93056;-72
2022/05/08 14:03:30;;;;;;;7.13;2.05;;;;;;;;;;5014361;28;91819;-72
2022/05/08 14:05:56;;;;;;;6.70;2.42;;;;;;;;;;5015642;28;92843;-72
2022/05/08 14:08:24;;;;;;;5.43;1.70;;;;;;;;;;5014378;28;94053;-73
2022/05/08 14:10:50;;;;;;;8.77;1.90;;;;;;;;;;5013528;28;95048;-72
2022/05/08 14:13:17;;;;;;;6.38;1.83;;;;;;;;;;5015845;28;95651;-72
2022/05/08 14:15:43;;;;;;;9.85;1.98;;;;;;;;;;5018856;28;93395;-73
2022/05/08 14:18:10;;;;;;;10.02;2.20;;;;;;;;;;5015758;28;92935;-71
2022/05/08 14:20:36;;;;;;;10.13;1.90;;;;;;;;;;5011656;28;93453;-71
2022/05/08 14:23:03;;;;;;;10.25;2.13;;;;;;;;;;5011475;28;92506;-72
2022/05/08 14:25:29;;;;;;;4.25;1.42;;;;;;;;;;5011354;28;94104;-73
2022/05/08 14:27:56;;;;;;;11.80;1.92;;;;;;;;;;5013648;28;93178;-73
2022/05/08 14:30:22;;;;;;;10.55;1.90;;;;;;;;;;4993469;28;92502;-73
2022/05/08 14:38:07;;;;;;;6.72;1.65;;;;;;;;;;5016809;28;92511;-74
2022/05/08 14:40:33;;;;;;;5.55;1.85;;;;;;;;;;5013981;28;93220;-74
2022/05/08 14:43:00;;;;;;;8.10;1.80;;;;;;;;;;5011542;28;93627;-74
2022/05/08 14:45:28;;;;;;;12.50;1.83;;;;;;;;;;5010258;28;93203;-74
2022/05/08 14:47:57;;;;;;;7.47;1.92;;;;;;;;;;4996614;28;94450;-74
2022/05/08 14:50:24;;;;;;;9.15;1.90;;;;;;;;;;5014219;28;92688;-73
2022/05/08 14:52:55;;;;;;;17.33;2.35;;;;;;;;;;4984825;28;93536;-74
2022/05/08 14:55:22;;;;;;;8.20;1.88;;;;;;;;;;5009779;28;93524;-73
2022/05/08 14:57:48;;;;;;;7.95;2.25;;;;;;;;;;5016705;28;92553;-73
2022/05/08 15:00:15;;;;;;;8.80;1.50;;;;;;;;;;5010754;28;97623;-74
2022/05/08 15:02:42;;;;;;;6.57;2.28;;;;;;;;;;5014669;28;92630;-74
2022/05/08 15:05:08;;;;;;;9.48;1.90;;;;;;;;;;5013655;28;93161;-74
2022/05/08 15:07:34;;;;;;;10.77;2.03;;;;;;;;;;5013151;28;93571;-74